sensor_id;sensor_type;location;lat;lon;timestamp;P1;durP1;ratioP1;P2;durP2;ratioP2
30458;SDS011;17254;50.976;7.034;2023-06-22T00:00:01;8.60;;;5.87;;
30458;SDS011;17254;50.976;7.034;2023-06-22T00:00:17;7.72;;;5.68;;
30458;SDS011;17254;50.976;7.034;2023-06-22T00:00:25;7.27;;;5.55;;
30458;SDS011;17254;50.976;7.034;2023-06-22T00:00:31;7.03;;;5.50;;
30458;SDS011;17254;50.976;7.034;2023-06-22T00:00:36;7.13;;;5.50;;
30458;SDS011;17254;50.976;7.034;2023-06-22T00:00:44;7.08;;;5.44;;
30458;SDS011;17254;50.976;7.034;2023-06-22T00:00:50;7.10;;;5.57;;
30458;SDS011;17254;50.976;7.034;2023-06-22T00:00:58;7.00;;;5.63;;
30458;SDS011;17254;50.976;7.034;2023-06-22T00:01:04;6.97;;;5.80;;
30458;SDS011;17254;50.976;7.034;2023-06-22T00:01:10;6.93;;;5.80;;
30458;SDS011;17254;50.976;7.034;2023-06-22T00:01:16;6.80;;;6.00;;
30458;SDS011;17254;50.976;7.034;2023-06-22T00:01:22;7.57;;;6.18;;
30458;SDS011;17254;50.976;7.034;2023-06-22T00:01:28;7.80;;;6.00;;
30458;SDS011;17254;50.976;7.034;2023-06-22T00:01:34;7.97;;;5.85;;
30458;SDS011;17254;50.976;7.034;2023-06-22T00:01:40;8.23;;;5.70;;
30458;SDS011;17254;50.976;7.034;2023-06-22T00:01:46;8.32;;;5.60;;
30458;SDS011;17254;50.976;7.034;2023-06-22T00:01:51;7.68;;;5.38;;
30458;SDS011;17254;50.976;7.034;2023-06-22T00:01:57;7.78;;;5.65;;
30458;SDS011;17254;50.976;7.034;2023-06-22T00:02:03;7.65;;;5.78;;
30458;SDS011;17254;50.976;7.034;2023-06-22T00:02:10;7.37;;;5.90;;
30458;SDS011;17254;50.976;7.034;2023-06-22T00:02:16;7.15;;;5.88;;
30458;SDS011;17254;50.976;7.034;2023-06-22T00:02:22;7.37;;;6.00;;
30458;SDS011;17254;50.976;7.034;2023-06-22T00:02:28;7.24;;;5.88;;
30458;SDS011;17254;50.976;7.034;2023-06-22T00:02:34;7.20;;;5.93;;
30458;SDS011;17254;50.976;7.034;2023-06-22T00:02:40;7.32;;;6.00;;
30458;SDS011;17254;50.976;7.034;2023-06-22T00:02:46;7.75;;;6.07;;
30458;SDS011;17254;50.976;7.034;2023-06-22T00:02:52;7.57;;;5.95;;
30458;SDS011;17254;50.976;7.034;2023-06-22T00:02:58;7.40;;;5.88;;
30458;SDS011;17254;50.976;7.034;2023-06-22T00:03:04;7.35;;;5.78;;
30458;SDS011;17254;50.976;7.034;2023-06-22T00:03:09;7.60;;;5.80;;
30458;SDS011;17254;50.976;7.034;2023-06-22T00:03:17;7.43;;;5.82;;
30458;SDS011;17254;50.976;7.034;2023-06-22T00:03:24;7.30;;;5.80;;
30458;SDS011;17254;50.976;7.034;2023-06-22T00:03:30;7.28;;;5.80;;
30458;SDS011;17254;50.976;7.034;2023-06-22T00:03:36;7.95;;;5.88;;
30458;SDS011;17254;50.976;7.034;2023-06-22T00:03:42;7.55;;;5.57;;
30458;SDS011;17254;50.976;7.034;2023-06-22T00:03:49;7.45;;;5.40;;
30458;SDS011;17254;50.976;7.034;2023-06-22T00:03:55;7.60;;;5.55;;
30458;SDS011;17254;50.976;7.034;2023-06-22T00:04:01;7.60;;;5.55;;
30458;SDS011;17254;50.976;7.034;2023-06-22T00:04:07;6.78;;;5.45;;
30458;SDS011;17254;50.976;7.034;2023-06-22T00:04:12;6.78;;;5.50;;
30458;SDS011;17254;50.976;7.034;2023-06-22T00:04:18;7.00;;;5.60;;
30458;SDS011;17254;50.976;7.034;2023-06-22T00:04:24;7.07;;;5.53;;
30458;SDS011;17254;50.976;7.034;2023-06-22T00:04:31;7.15;;;5.72;;
30458;SDS011;17254;50.976;7.034;2023-06-22T00:04:36;7.70;;;5.78;;
30458;SDS011;17254;50.976;7.034;2023-06-22T00:04:42;7.93;;;5.83;;
30458;SDS011;17254;50.976;7.034;2023-06-22T00:04:48;7.96;;;6.06;;
30458;SDS011;17254;50.976;7.034;2023-06-22T00:04:54;8.00;;;6.13;;
30458;SDS011;17254;50.976;7.034;2023-06-22T00:05:00;7.78;;;5.88;;
30458;SDS011;17254;50.976;7.034;2023-06-22T00:05:06;7.22;;;5.78;;
30458;SDS011;17254;50.976;7.034;2023-06-22T00:05:12;6.80;;;5.70;;
30458;SDS011;17254;50.976;7.034;2023-06-22T00:05:18;6.68;;;5.65;;
30458;SDS011;17254;50.976;7.034;2023-06-22T00:05:24;6.65;;;5.72;;
30458;SDS011;17254;50.976;7.034;2023-06-22T00:05:30;6.75;;;5.78;;
30458;SDS011;17254;50.976;7.034;2023-06-22T00:05:37;6.93;;;5.90;;
30458;SDS011;17254;50.976;7.034;2023-06-22T00:05:42;7.35;;;6.15;;
30458;SDS011;17254;50.976;7.034;2023-06-22T00:05:48;7.45;;;6.25;;
30458;SDS011;17254;50.976;7.034;2023-06-22T00:05:54;7.63;;;6.07;;
30458;SDS011;17254;50.976;7.034;2023-06-22T00:06:01;7.78;;;6.00;;
30458;SDS011;17254;50.976;7.034;2023-06-22T00:06:07;7.60;;;5.90;;
30458;SDS011;17254;50.976;7.034;2023-06-22T00:06:13;7.70;;;5.78;;
30458;SDS011;17254;50.976;7.034;2023-06-22T00:06:19;7.72;;;5.53;;
30458;SDS011;17254;50.976;7.034;2023-06-22T00:06:25;7.27;;;5.43;;
30458;SDS011;17254;50.976;7.034;2023-06-22T00:06:31;7.10;;;5.50;;
30458;SDS011;17254;50.976;7.034;2023-06-22T00:06:36;7.03;;;5.53;;
30458;SDS011;17254;50.976;7.034;2023-06-22T00:06:42;6.83;;;5.50;;
30458;SDS011;17254;50.976;7.034;2023-06-22T00:06:48;6.72;;;5.50;;
30458;SDS011;17254;50.976;7.034;2023-06-22T00:06:54;6.88;;;5.57;;
30458;SDS011;17254;50.976;7.034;2023-06-22T00:07:00;7.13;;;5.95;;
30458;SDS011;17254;50.976;7.034;2023-06-22T00:07:07;7.74;;;6.24;;
30458;SDS011;17254;50.976;7.034;2023-06-22T00:07:13;7.73;;;6.17;;
30458;SDS011;17254;50.976;7.034;2023-06-22T00:07:19;7.82;;;6.13;;
30458;SDS011;17254;50.976;7.034;2023-06-22T00:07:25;7.88;;;6.03;;
30458;SDS011;17254;50.976;7.034;2023-06-22T00:07:31;7.97;;;5.88;;
30458;SDS011;17254;50.976;7.034;2023-06-22T00:07:37;7.68;;;5.85;;
30458;SDS011;17254;50.976;7.034;2023-06-22T00:07:43;7.53;;;5.77;;
30458;SDS011;17254;50.976;7.034;2023-06-22T00:07:49;7.55;;;6.15;;
30458;SDS011;17254;50.976;7.034;2023-06-22T00:07:54;7.50;;;6.32;;
30458;SDS011;17254;50.976;7.034;2023-06-22T00:08:02;7.23;;;6.23;;
30458;SDS011;17254;50.976;7.034;2023-06-22T00:08:09;7.30;;;6.13;;
30458;SDS011;17254;50.976;7.034;2023-06-22T00:08:15;7.30;;;6.18;;
30458;SDS011;17254;50.976;7.034;2023-06-22T00:08:22;7.17;;;5.83;;
30458;SDS011;17254;50.976;7.034;2023-06-22T00:08:28;6.90;;;5.80;;
30458;SDS011;17254;50.976;7.034;2023-06-22T00:08:35;6.76;;;5.56;;
30458;SDS011;17254;50.976;7.034;2023-06-22T00:08:41;6.63;;;5.50;;
30458;SDS011;17254;50.976;7.034;2023-06-22T00:08:47;6.90;;;5.50;;
30458;SDS011;17254;50.976;7.034;2023-06-22T00:08:52;6.75;;;5.40;;
30458;SDS011;17254;50.976;7.034;2023-06-22T00:08:58;6.80;;;5.43;;
30458;SDS011;17254;50.976;7.034;2023-06-22T00:09:04;6.78;;;5.55;;
30458;SDS011;17254;50.976;7.034;2023-06-22T00:09:12;7.37;;;5.90;;
30458;SDS011;17254;50.976;7.034;2023-06-22T00:09:17;7.20;;;5.80;;
30458;SDS011;17254;50.976;7.034;2023-06-22T00:09:23;7.28;;;5.93;;
30458;SDS011;17254;50.976;7.034;2023-06-22T00:09:29;7.50;;;5.85;;
30458;SDS011;17254;50.976;7.034;2023-06-22T00:09:36;8.15;;;5.97;;
30458;SDS011;17254;50.976;7.034;2023-06-22T00:09:42;8.02;;;5.85;;
30458;SDS011;17254;50.976;7.034;2023-06-22T00:09:47;8.25;;;6.03;;
30458;SDS011;17254;50.976;7.034;2023-06-22T00:09:54;9.04;;;6.20;;
30458;SDS011;17254;50.976;7.034;2023-06-22T00:10:00;8.90;;;6.20;;
30458;SDS011;17254;50.976;7.034;2023-06-22T00:10:07;8.90;;;6.28;;
30458;SDS011;17254;50.976;7.034;2023-06-22T00:10:13;8.83;;;6.20;;
30458;SDS011;17254;50.976;7.034;2023-06-22T00:10:19;8.27;;;5.95;;
30458;SDS011;17254;50.976;7.034;2023-06-22T00:10:25;7.78;;;5.57;;
30458;SDS011;17254;50.976;7.034;2023-06-22T00:10:30;7.97;;;5.78;;
30458;SDS011;17254;50.976;7.034;2023-06-22T00:10:36;7.73;;;5.83;;
30458;SDS011;17254;50.976;7.034;2023-06-22T00:10:42;7.65;;;5.78;;
30458;SDS011;17254;50.976;7.034;2023-06-22T00:10:49;7.33;;;5.83;;
30458;SDS011;17254;50.976;7.034;2023-06-22T00:10:55;7.20;;;5.93;;
30458;SDS011;17254;50.976;7.034;2023-06-22T00:11:01;6.95;;;5.60;;
30458;SDS011;17254;50.976;7.034;2023-06-22T00:11:07;6.65;;;5.38;;
30458;SDS011;17254;50.976;7.034;2023-06-22T00:11:14;6.48;;;5.40;;
30458;SDS011;17254;50.976;7.034;2023-06-22T00:11:19;6.90;;;5.53;;
30458;SDS011;17254;50.976;7.034;2023-06-22T00:11:25;7.35;;;5.60;;
30458;SDS011;17254;50.976;7.034;2023-06-22T00:11:33;7.20;;;5.54;;
30458;SDS011;17254;50.976;7.034;2023-06-22T00:11:39;7.60;;;5.70;;
30458;SDS011;17254;50.976;7.034;2023-06-22T00:11:45;7.50;;;5.70;;
30458;SDS011;17254;50.976;7.034;2023-06-22T00:11:50;6.95;;;5.63;;
30458;SDS011;17254;50.976;7.034;2023-06-22T00:11:56;6.82;;;5.72;;
30458;SDS011;17254;50.976;7.034;2023-06-22T00:12:02;7.00;;;5.90;;
30458;SDS011;17254;50.976;7.034;2023-06-22T00:12:09;7.07;;;5.90;;
30458;SDS011;17254;50.976;7.034;2023-06-22T00:12:15;7.27;;;5.93;;
30458;SDS011;17254;50.976;7.034;2023-06-22T00:12:21;7.55;;;5.80;;
30458;SDS011;17254;50.976;7.034;2023-06-22T00:12:27;7.43;;;5.70;;
30458;SDS011;17254;50.976;7.034;2023-06-22T00:12:33;7.47;;;5.72;;
30458;SDS011;17254;50.976;7.034;2023-06-22T00:12:38;7.85;;;5.72;;
30458;SDS011;17254;50.976;7.034;2023-06-22T00:12:44;7.68;;;5.75;;
30458;SDS011;17254;50.976;7.034;2023-06-22T00:12:50;7.47;;;5.87;;
30458;SDS011;17254;50.976;7.034;2023-06-22T00:12:57;7.47;;;5.83;;
30458;SDS011;17254;50.976;7.034;2023-06-22T00:13:03;7.50;;;5.75;;
30458;SDS011;17254;50.976;7.034;2023-06-22T00:13:09;6.97;;;5.57;;
30458;SDS011;17254;50.976;7.034;2023-06-22T00:13:16;7.38;;;5.50;;
30458;SDS011;17254;50.976;7.034;2023-06-22T00:13:23;7.44;;;5.68;;
30458;SDS011;17254;50.976;7.034;2023-06-22T00:13:28;7.88;;;5.82;;
30458;SDS011;17254;50.976;7.034;2023-06-22T00:13:34;8.10;;;5.88;;
30458;SDS011;17254;50.976;7.034;2023-06-22T00:13:40;8.10;;;6.07;;
30458;SDS011;17254;50.976;7.034;2023-06-22T00:13:46;8.05;;;6.03;;
30458;SDS011;17254;50.976;7.034;2023-06-22T00:13:54;8.22;;;5.76;;
30458;SDS011;17254;50.976;7.034;2023-06-22T00:13:59;8.10;;;5.60;;
30458;SDS011;17254;50.976;7.034;2023-06-22T00:14:05;7.93;;;5.55;;
30458;SDS011;17254;50.976;7.034;2023-06-22T00:14:11;7.60;;;5.40;;
30458;SDS011;17254;50.976;7.034;2023-06-22T00:14:18;7.27;;;5.30;;
30458;SDS011;17254;50.976;7.034;2023-06-22T00:14:25;6.79;;;5.40;;
30458;SDS011;17254;50.976;7.034;2023-06-22T00:14:31;6.43;;;5.47;;
30458;SDS011;17254;50.976;7.034;2023-06-22T00:14:37;6.80;;;5.40;;
30458;SDS011;17254;50.976;7.034;2023-06-22T00:14:43;7.18;;;5.50;;
30458;SDS011;17254;50.976;7.034;2023-06-22T00:14:49;7.28;;;5.45;;
30458;SDS011;17254;50.976;7.034;2023-06-22T00:14:55;7.45;;;5.32;;
30458;SDS011;17254;50.976;7.034;2023-06-22T00:15:00;7.63;;;5.30;;
30458;SDS011;17254;50.976;7.034;2023-06-22T00:15:07;7.10;;;5.23;;
30458;SDS011;17254;50.976;7.034;2023-06-22T00:15:13;7.50;;;5.30;;
30458;SDS011;17254;50.976;7.034;2023-06-22T00:15:19;7.43;;;5.40;;
30458;SDS011;17254;50.976;7.034;2023-06-22T00:15:25;7.25;;;5.57;;
30458;SDS011;17254;50.976;7.034;2023-06-22T00:15:31;7.13;;;5.60;;
30458;SDS011;17254;50.976;7.034;2023-06-22T00:15:37;7.38;;;5.68;;
30458;SDS011;17254;50.976;7.034;2023-06-22T00:15:44;7.20;;;5.70;;
30458;SDS011;17254;50.976;7.034;2023-06-22T00:15:50;7.30;;;5.68;;
30458;SDS011;17254;50.976;7.034;2023-06-22T00:15:56;7.57;;;5.57;;
30458;SDS011;17254;50.976;7.034;2023-06-22T00:16:02;7.67;;;5.60;;
30458;SDS011;17254;50.976;7.034;2023-06-22T00:16:08;7.56;;;5.52;;
30458;SDS011;17254;50.976;7.034;2023-06-22T00:16:14;7.10;;;5.43;;
30458;SDS011;17254;50.976;7.034;2023-06-22T00:16:20;7.35;;;5.38;;
30458;SDS011;17254;50.976;7.034;2023-06-22T00:16:27;7.33;;;5.33;;
30458;SDS011;17254;50.976;7.034;2023-06-22T00:16:33;7.07;;;5.30;;
30458;SDS011;17254;50.976;7.034;2023-06-22T00:16:38;7.07;;;5.32;;
30458;SDS011;17254;50.976;7.034;2023-06-22T00:16:44;6.88;;;5.18;;
30458;SDS011;17254;50.976;7.034;2023-06-22T00:16:53;6.43;;;5.32;;
30458;SDS011;17254;50.976;7.034;2023-06-22T00:17:02;6.37;;;5.49;;
30458;SDS011;17254;50.976;7.034;2023-06-22T00:17:08;6.83;;;5.73;;
30458;SDS011;17254;50.976;7.034;2023-06-22T00:17:14;7.32;;;6.00;;
30458;SDS011;17254;50.976;7.034;2023-06-22T00:17:20;7.90;;;6.07;;
30458;SDS011;17254;50.976;7.034;2023-06-22T00:17:26;8.57;;;5.95;;
30458;SDS011;17254;50.976;7.034;2023-06-22T00:17:32;8.50;;;5.80;;
30458;SDS011;17254;50.976;7.034;2023-06-22T00:17:38;8.20;;;5.57;;
30458;SDS011;17254;50.976;7.034;2023-06-22T00:17:43;8.05;;;5.50;;
30458;SDS011;17254;50.976;7.034;2023-06-22T00:17:50;7.63;;;5.30;;
30458;SDS011;17254;50.976;7.034;2023-06-22T00:17:56;7.32;;;5.43;;
30458;SDS011;17254;50.976;7.034;2023-06-22T00:18:04;7.00;;;5.43;;
30458;SDS011;17254;50.976;7.034;2023-06-22T00:18:11;7.10;;;5.52;;
30458;SDS011;17254;50.976;7.034;2023-06-22T00:18:18;6.87;;;5.50;;
30458;SDS011;17254;50.976;7.034;2023-06-22T00:18:24;6.75;;;5.60;;
30458;SDS011;17254;50.976;7.034;2023-06-22T00:18:32;6.97;;;5.57;;
30458;SDS011;17254;50.976;7.034;2023-06-22T00:18:38;6.93;;;5.68;;
30458;SDS011;17254;50.976;7.034;2023-06-22T00:18:44;7.00;;;5.53;;
30458;SDS011;17254;50.976;7.034;2023-06-22T00:18:52;7.03;;;5.30;;
30458;SDS011;17254;50.976;7.034;2023-06-22T00:18:58;7.40;;;5.53;;
30458;SDS011;17254;50.976;7.034;2023-06-22T00:19:05;7.46;;;5.48;;
30458;SDS011;17254;50.976;7.034;2023-06-22T00:19:11;7.68;;;5.43;;
30458;SDS011;17254;50.976;7.034;2023-06-22T00:19:17;8.02;;;5.45;;
30458;SDS011;17254;50.976;7.034;2023-06-22T00:19:24;8.72;;;5.78;;
30458;SDS011;17254;50.976;7.034;2023-06-22T00:19:30;9.27;;;5.75;;
30458;SDS011;17254;50.976;7.034;2023-06-22T00:19:37;9.47;;;5.80;;
30458;SDS011;17254;50.976;7.034;2023-06-22T00:19:46;9.37;;;5.87;;
30458;SDS011;17254;50.976;7.034;2023-06-22T00:19:53;8.80;;;5.82;;
30458;SDS011;17254;50.976;7.034;2023-06-22T00:20:00;7.63;;;5.60;;
30458;SDS011;17254;50.976;7.034;2023-06-22T00:20:07;7.70;;;5.63;;
30458;SDS011;17254;50.976;7.034;2023-06-22T00:20:15;7.51;;;5.69;;
30458;SDS011;17254;50.976;7.034;2023-06-22T00:20:21;7.70;;;5.70;;
30458;SDS011;17254;50.976;7.034;2023-06-22T00:20:28;7.47;;;5.77;;
30458;SDS011;17254;50.976;7.034;2023-06-22T00:20:34;7.40;;;5.87;;
30458;SDS011;17254;50.976;7.034;2023-06-22T00:20:42;6.97;;;5.83;;
30458;SDS011;17254;50.976;7.034;2023-06-22T00:20:47;6.57;;;5.75;;
30458;SDS011;17254;50.976;7.034;2023-06-22T00:20:54;6.45;;;5.72;;
30458;SDS011;17254;50.976;7.034;2023-06-22T00:21:03;6.80;;;5.57;;
30458;SDS011;17254;50.976;7.034;2023-06-22T00:21:09;6.75;;;5.50;;
30458;SDS011;17254;50.976;7.034;2023-06-22T00:21:17;6.92;;;5.43;;
30458;SDS011;17254;50.976;7.034;2023-06-22T00:21:25;6.90;;;5.35;;
30458;SDS011;17254;50.976;7.034;2023-06-22T00:21:31;6.82;;;5.32;;
30458;SDS011;17254;50.976;7.034;2023-06-22T00:21:37;7.45;;;5.40;;
30458;SDS011;17254;50.976;7.034;2023-06-22T00:21:43;7.45;;;5.53;;
30458;SDS011;17254;50.976;7.034;2023-06-22T00:21:52;7.57;;;5.63;;
30458;SDS011;17254;50.976;7.034;2023-06-22T00:21:58;7.55;;;5.55;;
30458;SDS011;17254;50.976;7.034;2023-06-22T00:22:05;6.60;;;5.50;;
30458;SDS011;17254;50.976;7.034;2023-06-22T00:22:12;6.85;;;5.45;;
30458;SDS011;17254;50.976;7.034;2023-06-22T00:22:17;6.72;;;5.30;;
30458;SDS011;17254;50.976;7.034;2023-06-22T00:22:26;7.10;;;5.50;;
30458;SDS011;17254;50.976;7.034;2023-06-22T00:22:33;7.27;;;5.70;;
30458;SDS011;17254;50.976;7.034;2023-06-22T00:22:43;7.21;;;5.66;;
30458;SDS011;17254;50.976;7.034;2023-06-22T00:22:49;7.50;;;5.80;;
30458;SDS011;17254;50.976;7.034;2023-06-22T00:22:55;7.50;;;5.73;;
30458;SDS011;17254;50.976;7.034;2023-06-22T00:23:02;7.54;;;5.70;;
30458;SDS011;17254;50.976;7.034;2023-06-22T00:23:13;7.56;;;5.53;;
30458;SDS011;17254;50.976;7.034;2023-06-22T00:23:22;7.10;;;5.26;;
30458;SDS011;17254;50.976;7.034;2023-06-22T00:23:28;7.07;;;5.10;;
30458;SDS011;17254;50.976;7.034;2023-06-22T00:23:39;8.00;;;5.30;;
30458;SDS011;17254;50.976;7.034;2023-06-22T00:23:46;8.40;;;5.60;;
30458;SDS011;17254;50.976;7.034;2023-06-22T00:23:52;8.65;;;5.65;;
30458;SDS011;17254;50.976;7.034;2023-06-22T00:23:58;8.60;;;5.70;;
30458;SDS011;17254;50.976;7.034;2023-06-22T00:24:04;8.67;;;5.77;;
30458;SDS011;17254;50.976;7.034;2023-06-22T00:24:11;8.78;;;5.70;;
30458;SDS011;17254;50.976;7.034;2023-06-22T00:24:17;8.60;;;5.53;;
30458;SDS011;17254;50.976;7.034;2023-06-22T00:24:23;8.80;;;5.65;;
30458;SDS011;17254;50.976;7.034;2023-06-22T00:24:29;8.46;;;5.66;;
30458;SDS011;17254;50.976;7.034;2023-06-22T00:24:35;7.63;;;5.68;;
30458;SDS011;17254;50.976;7.034;2023-06-22T00:24:41;7.75;;;5.80;;
30458;SDS011;17254;50.976;7.034;2023-06-22T00:24:47;7.93;;;5.90;;
30458;SDS011;17254;50.976;7.034;2023-06-22T00:24:53;7.93;;;5.80;;
30458;SDS011;17254;50.976;7.034;2023-06-22T00:24:59;8.23;;;5.80;;
30458;SDS011;17254;50.976;7.034;2023-06-22T00:25:05;8.38;;;5.75;;
30458;SDS011;17254;50.976;7.034;2023-06-22T00:25:12;8.94;;;5.46;;
30458;SDS011;17254;50.976;7.034;2023-06-22T00:25:18;8.95;;;5.43;;
30458;SDS011;17254;50.976;7.034;2023-06-22T00:25:24;9.10;;;5.68;;
30458;SDS011;17254;50.976;7.034;2023-06-22T00:25:31;9.33;;;5.60;;
30458;SDS011;17254;50.976;7.034;2023-06-22T00:25:38;8.85;;;5.75;;
30458;SDS011;17254;50.976;7.034;2023-06-22T00:25:45;8.90;;;5.78;;
30458;SDS011;17254;50.976;7.034;2023-06-22T00:25:52;8.38;;;5.58;;
30458;SDS011;17254;50.976;7.034;2023-06-22T00:25:58;8.57;;;5.53;;
30458;SDS011;17254;50.976;7.034;2023-06-22T00:26:03;8.35;;;5.60;;
30458;SDS011;17254;50.976;7.034;2023-06-22T00:26:09;8.00;;;5.50;;
30458;SDS011;17254;50.976;7.034;2023-06-22T00:26:16;8.70;;;5.80;;
30458;SDS011;17254;50.976;7.034;2023-06-22T00:26:22;8.60;;;5.70;;
30458;SDS011;17254;50.976;7.034;2023-06-22T00:26:28;8.27;;;5.57;;
30458;SDS011;17254;50.976;7.034;2023-06-22T00:26:34;7.53;;;5.43;;
30458;SDS011;17254;50.976;7.034;2023-06-22T00:26:40;7.50;;;5.45;;
30458;SDS011;17254;50.976;7.034;2023-06-22T00:26:49;6.82;;;5.42;;
30458;SDS011;17254;50.976;7.034;2023-06-22T00:26:55;6.82;;;5.70;;
30458;SDS011;17254;50.976;7.034;2023-06-22T00:27:01;7.23;;;5.70;;
30458;SDS011;17254;50.976;7.034;2023-06-22T00:27:07;7.30;;;5.53;;
30458;SDS011;17254;50.976;7.034;2023-06-22T00:27:12;7.65;;;5.43;;
30458;SDS011;17254;50.976;7.034;2023-06-22T00:27:18;7.57;;;5.27;;
30458;SDS011;17254;50.976;7.034;2023-06-22T00:27:24;7.00;;;5.10;;
30458;SDS011;17254;50.976;7.034;2023-06-22T00:27:30;6.63;;;5.05;;
30458;SDS011;17254;50.976;7.034;2023-06-22T00:27:36;6.88;;;5.07;;
30458;SDS011;17254;50.976;7.034;2023-06-22T00:27:44;7.13;;;5.27;;
30458;SDS011;17254;50.976;7.034;2023-06-22T00:27:50;7.70;;;5.45;;
30458;SDS011;17254;50.976;7.034;2023-06-22T00:27:56;8.27;;;5.68;;
30458;SDS011;17254;50.976;7.034;2023-06-22T00:28:02;8.93;;;5.70;;
30458;SDS011;17254;50.976;7.034;2023-06-22T00:28:08;8.47;;;5.70;;
30458;SDS011;17254;50.976;7.034;2023-06-22T00:28:15;8.03;;;5.80;;
30458;SDS011;17254;50.976;7.034;2023-06-22T00:28:21;7.85;;;5.90;;
30458;SDS011;17254;50.976;7.034;2023-06-22T00:28:27;7.70;;;5.80;;
30458;SDS011;17254;50.976;7.034;2023-06-22T00:28:34;7.57;;;5.80;;
30458;SDS011;17254;50.976;7.034;2023-06-22T00:28:40;8.20;;;5.93;;
30458;SDS011;17254;50.976;7.034;2023-06-22T00:28:46;8.40;;;6.03;;
30458;SDS011;17254;50.976;7.034;2023-06-22T00:28:52;8.30;;;6.10;;
30458;SDS011;17254;50.976;7.034;2023-06-22T00:28:58;8.30;;;6.20;;
30458;SDS011;17254;50.976;7.034;2023-06-22T00:29:04;8.53;;;6.43;;
30458;SDS011;17254;50.976;7.034;2023-06-22T00:29:10;8.55;;;6.30;;
30458;SDS011;17254;50.976;7.034;2023-06-22T00:29:16;8.20;;;6.25;;
30458;SDS011;17254;50.976;7.034;2023-06-22T00:29:25;8.12;;;6.04;;
30458;SDS011;17254;50.976;7.034;2023-06-22T00:29:30;7.60;;;5.77;;
30458;SDS011;17254;50.976;7.034;2023-06-22T00:29:36;7.13;;;5.70;;
30458;SDS011;17254;50.976;7.034;2023-06-22T00:29:42;7.05;;;5.65;;
30458;SDS011;17254;50.976;7.034;2023-06-22T00:29:49;6.73;;;5.43;;
30458;SDS011;17254;50.976;7.034;2023-06-22T00:29:55;6.63;;;5.30;;
30458;SDS011;17254;50.976;7.034;2023-06-22T00:30:01;6.78;;;5.25;;
30458;SDS011;17254;50.976;7.034;2023-06-22T00:30:08;6.78;;;5.22;;
30458;SDS011;17254;50.976;7.034;2023-06-22T00:30:15;6.84;;;5.42;;
30458;SDS011;17254;50.976;7.034;2023-06-22T00:30:21;7.33;;;5.63;;
30458;SDS011;17254;50.976;7.034;2023-06-22T00:30:27;7.20;;;5.68;;
30458;SDS011;17254;50.976;7.034;2023-06-22T00:30:36;7.18;;;5.92;;
30458;SDS011;17254;50.976;7.034;2023-06-22T00:30:42;7.47;;;6.05;;
30458;SDS011;17254;50.976;7.034;2023-06-22T00:30:48;7.32;;;6.00;;
30458;SDS011;17254;50.976;7.034;2023-06-22T00:30:55;7.52;;;6.16;;
30458;SDS011;17254;50.976;7.034;2023-06-22T00:31:01;7.63;;;6.05;;
30458;SDS011;17254;50.976;7.034;2023-06-22T00:31:07;8.13;;;6.13;;
30458;SDS011;17254;50.976;7.034;2023-06-22T00:31:13;7.72;;;5.93;;
30458;SDS011;17254;50.976;7.034;2023-06-22T00:31:19;7.70;;;5.90;;
30458;SDS011;17254;50.976;7.034;2023-06-22T00:31:25;7.78;;;5.80;;
30458;SDS011;17254;50.976;7.034;2023-06-22T00:31:33;7.47;;;5.77;;
30458;SDS011;17254;50.976;7.034;2023-06-22T00:31:39;7.57;;;5.57;;
30458;SDS011;17254;50.976;7.034;2023-06-22T00:31:45;7.75;;;5.53;;
30458;SDS011;17254;50.976;7.034;2023-06-22T00:31:51;7.82;;;5.57;;
30458;SDS011;17254;50.976;7.034;2023-06-22T00:31:56;7.43;;;5.47;;
30458;SDS011;17254;50.976;7.034;2023-06-22T00:32:03;7.53;;;5.50;;
30458;SDS011;17254;50.976;7.034;2023-06-22T00:32:09;7.48;;;5.70;;
30458;SDS011;17254;50.976;7.034;2023-06-22T00:32:16;7.80;;;5.90;;
30458;SDS011;17254;50.976;7.034;2023-06-22T00:32:25;7.70;;;5.77;;
30458;SDS011;17254;50.976;7.034;2023-06-22T00:32:31;7.82;;;5.72;;
30458;SDS011;17254;50.976;7.034;2023-06-22T00:32:37;7.75;;;5.68;;
30458;SDS011;17254;50.976;7.034;2023-06-22T00:32:43;7.05;;;5.45;;
30458;SDS011;17254;50.976;7.034;2023-06-22T00:32:49;7.10;;;5.40;;
30458;SDS011;17254;50.976;7.034;2023-06-22T00:32:55;7.07;;;5.45;;
30458;SDS011;17254;50.976;7.034;2023-06-22T00:33:01;6.88;;;5.50;;
30458;SDS011;17254;50.976;7.034;2023-06-22T00:33:07;6.95;;;5.40;;
30458;SDS011;17254;50.976;7.034;2023-06-22T00:33:13;7.20;;;5.50;;
30458;SDS011;17254;50.976;7.034;2023-06-22T00:33:19;6.96;;;5.38;;
30458;SDS011;17254;50.976;7.034;2023-06-22T00:33:26;7.13;;;5.20;;
30458;SDS011;17254;50.976;7.034;2023-06-22T00:33:33;7.58;;;5.36;;
30458;SDS011;17254;50.976;7.034;2023-06-22T00:33:39;7.28;;;5.43;;
30458;SDS011;17254;50.976;7.034;2023-06-22T00:33:45;7.18;;;5.22;;
30458;SDS011;17254;50.976;7.034;2023-06-22T00:33:51;7.53;;;5.37;;
30458;SDS011;17254;50.976;7.034;2023-06-22T00:33:57;7.25;;;5.60;;
30458;SDS011;17254;50.976;7.034;2023-06-22T00:34:03;6.97;;;5.47;;
30458;SDS011;17254;50.976;7.034;2023-06-22T00:34:12;7.00;;;5.40;;
30458;SDS011;17254;50.976;7.034;2023-06-22T00:34:18;7.00;;;5.40;;
30458;SDS011;17254;50.976;7.034;2023-06-22T00:34:24;6.85;;;5.25;;
30458;SDS011;17254;50.976;7.034;2023-06-22T00:34:31;6.66;;;5.06;;
30458;SDS011;17254;50.976;7.034;2023-06-22T00:34:38;7.70;;;5.30;;
30458;SDS011;17254;50.976;7.034;2023-06-22T00:34:44;7.72;;;5.30;;
30458;SDS011;17254;50.976;7.034;2023-06-22T00:34:50;7.55;;;5.15;;
30458;SDS011;17254;50.976;7.034;2023-06-22T00:34:56;8.38;;;5.20;;
30458;SDS011;17254;50.976;7.034;2023-06-22T00:35:03;8.77;;;5.23;;
30458;SDS011;17254;50.976;7.034;2023-06-22T00:35:10;7.66;;;5.02;;
30458;SDS011;17254;50.976;7.034;2023-06-22T00:35:17;7.62;;;5.10;;
30458;SDS011;17254;50.976;7.034;2023-06-22T00:35:23;7.72;;;5.28;;
30458;SDS011;17254;50.976;7.034;2023-06-22T00:35:34;7.30;;;5.37;;
30458;SDS011;17254;50.976;7.034;2023-06-22T00:35:40;7.43;;;5.50;;
30458;SDS011;17254;50.976;7.034;2023-06-22T00:35:46;7.60;;;5.50;;
30458;SDS011;17254;50.976;7.034;2023-06-22T00:35:52;7.75;;;5.65;;
30458;SDS011;17254;50.976;7.034;2023-06-22T00:35:59;7.48;;;5.62;;
30458;SDS011;17254;50.976;7.034;2023-06-22T00:36:05;6.82;;;5.47;;
30458;SDS011;17254;50.976;7.034;2023-06-22T00:36:12;7.30;;;5.62;;
30458;SDS011;17254;50.976;7.034;2023-06-22T00:36:21;7.49;;;5.77;;
30458;SDS011;17254;50.976;7.034;2023-06-22T00:36:29;7.80;;;6.17;;
30458;SDS011;17254;50.976;7.034;2023-06-22T00:36:36;7.95;;;6.22;;
30458;SDS011;17254;50.976;7.034;2023-06-22T00:36:42;7.43;;;6.20;;
30458;SDS011;17254;50.976;7.034;2023-06-22T00:36:48;7.20;;;6.00;;
30458;SDS011;17254;50.976;7.034;2023-06-22T00:36:54;7.15;;;5.78;;
30458;SDS011;17254;50.976;7.034;2023-06-22T00:37:00;7.10;;;5.50;;
30458;SDS011;17254;50.976;7.034;2023-06-22T00:37:05;7.10;;;5.47;;
30458;SDS011;17254;50.976;7.034;2023-06-22T00:37:13;7.14;;;5.48;;
30458;SDS011;17254;50.976;7.034;2023-06-22T00:37:19;7.32;;;5.78;;
30458;SDS011;17254;50.976;7.034;2023-06-22T00:37:32;7.81;;;6.16;;
30458;SDS011;17254;50.976;7.034;2023-06-22T00:37:38;8.37;;;6.30;;
30458;SDS011;17254;50.976;7.034;2023-06-22T00:37:47;8.33;;;6.23;;
30458;SDS011;17254;50.976;7.034;2023-06-22T00:37:53;7.93;;;5.88;;
30458;SDS011;17254;50.976;7.034;2023-06-22T00:38:05;7.26;;;5.64;;
30458;SDS011;17254;50.976;7.034;2023-06-22T00:38:11;7.00;;;5.50;;
30458;SDS011;17254;50.976;7.034;2023-06-22T00:38:17;6.80;;;5.47;;
30458;SDS011;17254;50.976;7.034;2023-06-22T00:38:23;6.90;;;5.65;;
30458;SDS011;17254;50.976;7.034;2023-06-22T00:38:29;6.90;;;5.60;;
30458;SDS011;17254;50.976;7.034;2023-06-22T00:38:35;6.70;;;5.38;;
30458;SDS011;17254;50.976;7.034;2023-06-22T00:38:45;6.45;;;5.26;;
30458;SDS011;17254;50.976;7.034;2023-06-22T00:38:52;6.37;;;5.07;;